Time;durP1;ratioP1;P1;durP2;ratioP2;P2;SDS_P1;SDS_P2;PMS_P1;PMS_P2;Temp;Humidity;BMP_temperature;BMP_pressure;BME280_temperature;BME280_humidity;BME280_pressure;Samples;Min_cycle;Max_cycle;Signal;HPM_P1;HPM_P2
2021/04/20 00:00:41;;;;;;;1.20;1.20;;;7.50;99.90;;;;;;4990822;28;20156;-70
2021/04/20 00:03:07;;;;;;;2.08;1.52;;;7.40;99.90;;;;;;4989293;28;20167;-70
2021/04/20 00:05:32;;;;;;;1.27;1.23;;;7.40;99.90;;;;;;4990754;28;20163;-71
2021/04/20 00:07:58;;;;;;;1.33;0.68;;;7.40;99.90;;;;;;4990633;28;20626;-70
2021/04/20 00:10:25;;;;;;;0.20;0.20;;;7.30;99.90;;;;;;4990418;28;20174;-71
2021/04/20 00:12:51;;;;;;;1.23;1.23;;;7.20;99.90;;;;;;4990256;28;20222;-71
2021/04/20 00:15:23;;;;;;;0.43;0.43;;;7.10;99.90;;;;;;4990657;28;20223;-71
2021/04/20 00:17:51;;;;;;;1.50;1.40;;;7.30;99.90;;;;;;4990416;28;20191;-71
2021/04/20 00:20:17;;;;;;;1.00;1.00;;;7.20;99.90;;;;;;4988861;28;20227;-70
2021/04/20 00:22:44;;;;;;;1.60;1.42;;;7.30;99.90;;;;;;4990554;28;20171;-70
2021/04/20 00:25:10;;;;;;;0.90;0.90;;;7.50;99.90;;;;;;4990400;28;20191;-71
2021/04/20 00:27:37;;;;;;;1.33;1.33;;;7.40;99.90;;;;;;4989181;28;20168;-71
2021/04/20 00:30:08;;;;;;;0.77;0.77;;;7.40;99.90;;;;;;4990450;28;20179;-70
2021/04/20 00:32:34;;;;;;;0.30;0.30;;;7.40;99.90;;;;;;4990193;28;20195;-70
2021/04/20 00:35:00;;;;;;;1.23;1.13;;;7.40;99.90;;;;;;4990141;28;20217;-71
2021/04/20 00:37:26;;;;;;;0.50;0.50;;;7.40;99.90;;;;;;4989126;28;20187;-70
2021/04/20 00:39:52;;;;;;;0.43;0.43;;;7.20;99.90;;;;;;4990049;28;20152;-70
2021/04/20 00:42:17;;;;;;;0.60;0.60;;;7.20;99.90;;;;;;4990172;28;20179;-70
2021/04/20 00:44:43;;;;;;;0.63;0.63;;;7.10;99.90;;;;;;4990115;28;20198;-70
2021/04/20 00:47:13;;;;;;;4.32;1.98;;;7.10;99.90;;;;;;4988868;28;20176;-70
2021/04/20 00:49:39;;;;;;;1.65;1.55;;;7.10;99.90;;;;;;4990091;28;20167;-70
2021/04/20 00:52:05;;;;;;;0.43;0.43;;;7.10;99.90;;;;;;4988577;28;20171;-70
2021/04/20 00:54:32;;;;;;;1.65;1.60;;;7.10;99.90;;;;;;4989793;28;20207;-70
2021/04/20 00:56:58;;;;;;;0.88;0.88;;;7.10;99.90;;;;;;4989905;28;20178;-70
2021/04/20 00:59:24;;;;;;;0.95;0.95;;;7.00;99.90;;;;;;4989861;28;20167;-70
2021/04/20 01:01:51;;;;;;;0.32;0.32;;;7.00;99.90;;;;;;4989699;28;20223;-70
2021/04/20 01:04:18;;;;;;;0.82;0.82;;;7.00;99.90;;;;;;4989743;28;20693;-71
2021/04/20 01:06:47;;;;;;;0.68;0.68;;;7.00;99.90;;;;;;4988188;28;20167;-70
2021/04/20 01:09:14;;;;;;;0.30;0.30;;;7.00;99.90;;;;;;4989574;28;20151;-70
2021/04/20 01:11:42;;;;;;;0.55;0.55;;;7.00;99.90;;;;;;4989473;28;20607;-69
2021/04/20 01:14:09;;;;;;;1.65;1.13;;;7.00;99.90;;;;;;4978614;28;20595;-71
2021/04/20 01:16:37;;;;;;;1.38;1.00;;;7.10;99.90;;;;;;4968430;29;20175;-71
2021/04/20 01:19:06;;;;;;;1.30;1.20;;;7.10;99.90;;;;;;4968442;29;20160;-70
2021/04/20 01:21:37;;;;;;;1.20;1.20;;;7.10;99.90;;;;;;4969894;28;20251;-70
2021/04/20 01:24:09;;;;;;;0.60;0.60;;;7.10;99.90;;;;;;4969562;28;20575;-71
2021/04/20 01:26:42;;;;;;;0.52;0.52;;;7.10;99.90;;;;;;4970010;28;20168;-71
2021/04/20 01:29:08;;;;;;;1.75;1.65;;;7.10;99.90;;;;;;4970089;28;20615;-71
2021/04/20 01:31:37;;;;;;;2.75;2.58;;;7.10;99.90;;;;;;4969929;28;20164;-70
2021/04/20 01:34:04;;;;;;;1.65;1.55;;;7.10;99.90;;;;;;4968310;29;20211;-70
2021/04/20 01:36:31;;;;;;;1.85;1.80;;;7.10;99.90;;;;;;4969907;28;20227;-70
2021/04/20 01:38:58;;;;;;;1.45;1.35;;;7.10;99.90;;;;;;4969891;28;20160;-71
2021/04/20 01:41:26;;;;;;;0.50;0.50;;;7.20;99.90;;;;;;4969743;28;20156;-70
2021/04/20 01:43:54;;;;;;;3.42;2.25;;;7.20;99.90;;;;;;4969847;28;20286;-70
2021/04/20 01:46:20;;;;;;;1.10;1.08;;;7.20;99.90;;;;;;4968373;29;20175;-70
2021/04/20 01:48:48;;;;;;;3.22;1.35;;;7.30;99.90;;;;;;4969773;28;20555;-70
2021/04/20 01:51:15;;;;;;;1.50;1.40;;;7.30;99.90;;;;;;4969693;28;20161;-70
2021/04/20 01:53:42;;;;;;;0.15;0.15;;;7.30;99.90;;;;;;4969809;28;20217;-71
2021/04/20 01:56:10;;;;;;;0.43;0.43;;;7.30;99.90;;;;;;4969643;28;20164;-71
2021/04/20 01:58:38;;;;;;;0.63;0.63;;;7.30;99.90;;;;;;4969694;28;20172;-71
2021/04/20 02:01:08;;;;;;;1.92;1.75;;;7.20;99.90;;;;;;4969626;28;20160;-71
2021/04/20 02:03:34;;;;;;;0.98;0.98;;;7.20;99.90;;;;;;4969717;28;20215;-70
2021/04/20 02:06:01;;;;;;;0.57;0.57;;;7.10;99.90;;;;;;4969659;28;20206;-70
2021/04/20 02:08:27;;;;;;;2.70;2.35;;;7.00;99.90;;;;;;4968497;29;20194;-70
2021/04/20 02:10:56;;;;;;;3.67;3.42;;;7.00;99.90;;;;;;4968498;29;20176;-71
2021/04/20 02:13:22;;;;;;;0.93;0.93;;;7.00;99.90;;;;;;4969576;28;20208;-70
2021/04/20 02:15:48;;;;;;;0.52;0.52;;;7.10;99.90;;;;;;4969515;28;20187;-70
2021/04/20 02:18:15;;;;;;;1.67;1.58;;;7.20;99.90;;;;;;4969679;28;20152;-70
2021/04/20 02:20:42;;;;;;;1.23;1.23;;;7.20;99.90;;;;;;4968072;28;20231;-70
2021/04/20 02:23:10;;;;;;;0.75;0.75;;;7.20;99.90;;;;;;4969510;28;20172;-70
2021/04/20 02:25:36;;;;;;;0.63;0.50;;;7.20;99.90;;;;;;4969483;28;20717;-71
2021/04/20 02:28:02;;;;;;;0.28;0.28;;;7.20;99.90;;;;;;4967980;29;20187;-71
2021/04/20 02:30:29;;;;;;;0.95;0.95;;;7.10;99.90;;;;;;4969612;28;20165;-71
2021/04/20 02:32:56;;;;;;;1.58;1.48;;;7.10;99.90;;;;;;4969661;28;20188;-71
2021/04/20 02:35:22;;;;;;;3.03;2.83;;;7.10;99.90;;;;;;4973071;28;20168;-70
2021/04/20 02:37:48;;;;;;;3.67;1.63;;;7.10;99.90;;;;;;4973138;28;20160;-71
2021/04/20 02:40:23;;;;;;;1.25;1.23;;;7.10;99.90;;;;;;4973184;28;20168;-70
2021/04/20 02:42:51;;;;;;;0.60;0.60;;;7.10;99.90;;;;;;4974201;28;20168;-70
2021/04/20 02:45:19;;;;;;;0.60;0.60;;;7.00;99.90;;;;;;4973112;29;20177;-71
2021/04/20 02:47:46;;;;;;;1.02;1.02;;;7.00;99.90;;;;;;4973303;28;20176;-71
2021/04/20 02:50:15;;;;;;;0.38;0.38;;;6.90;99.90;;;;;;4974138;28;20195;-70
2021/04/20 02:52:43;;;;;;;2.00;1.85;;;6.90;99.90;;;;;;4974479;28;20215;-70
2021/04/20 02:55:11;;;;;;;0.60;0.60;;;6.80;99.90;;;;;;4974003;28;20207;-70
2021/04/20 02:57:42;;;;;;;1.95;1.85;;;6.70;99.90;;;;;;4974268;28;20156;-70
2021/04/20 03:00:12;;;;;;;0.57;0.57;;;6.60;99.90;;;;;;4972686;29;20168;-71
2021/04/20 03:02:39;;;;;;;1.45;1.45;;;6.60;99.90;;;;;;4974013;28;20215;-70
2021/04/20 03:05:12;;;;;;;1.00;1.00;;;6.70;99.90;;;;;;4973615;28;20191;-70
2021/04/20 03:07:38;;;;;;;0.68;0.68;;;6.70;99.90;;;;;;4973674;28;20231;-70
2021/04/20 03:10:05;;;;;;;0.45;0.45;;;6.60;99.90;;;;;;4973870;28;20164;-70
2021/04/20 03:12:31;;;;;;;2.47;1.15;;;6.40;99.90;;;;;;4973112;28;20200;-70
2021/04/20 03:15:00;;;;;;;1.00;1.00;;;6.40;99.90;;;;;;4973469;28;20212;-70
2021/04/20 03:17:26;;;;;;;0.30;0.30;;;6.30;99.90;;;;;;4972025;28;20160;-70
2021/04/20 03:19:51;;;;;;;2.90;0.68;;;6.40;99.90;;;;;;4970551;29;20220;-70
2021/04/20 03:22:19;;;;;;;2.55;0.93;;;6.40;99.90;;;;;;4972302;28;20187;-70
2021/04/20 03:24:50;;;;;;;0.20;0.20;;;6.40;99.90;;;;;;4971998;28;20204;-70
2021/04/20 03:27:16;;;;;;;0.20;0.20;;;6.30;99.90;;;;;;4983934;28;20183;-70
2021/04/20 03:29:42;;;;;;;2.55;2.35;;;6.30;99.90;;;;;;4991298;28;20750;-70
2021/04/20 03:32:10;;;;;;;1.00;1.00;;;6.30;99.90;;;;;;4991409;28;20164;-71
2021/04/20 03:34:41;;;;;;;0.47;0.47;;;6.30;99.90;;;;;;4989948;28;20207;-71
2021/04/20 03:37:12;;;;;;;0.95;0.95;;;6.30;99.90;;;;;;4991309;28;20232;-70
2021/04/20 03:39:44;;;;;;;7.82;0.90;;;6.30;99.90;;;;;;4990677;28;20179;-71
2021/04/20 03:42:23;;;;;;;0.20;0.20;;;6.30;99.90;;;;;;4991066;28;20179;-71
2021/04/20 03:44:56;;;;;;;3.55;1.85;;;6.40;99.90;;;;;;4989245;28;20199;-70
2021/04/20 03:47:36;;;;;;;1.52;1.42;;;6.50;99.90;;;;;;4990925;28;20179;-71
2021/04/20 03:50:07;;;;;;;2.03;1.95;;;6.50;99.90;;;;;;4989487;28;20198;-70
2021/04/20 03:52:42;;;;;;;1.30;1.20;;;6.60;99.90;;;;;;4990823;28;20225;-72
2021/04/20 03:55:12;;;;;;;0.95;0.95;;;6.60;99.90;;;;;;4989208;28;20206;-70
2021/04/20 03:57:41;;;;;;;1.25;1.13;;;6.50;99.90;;;;;;4990862;28;20163;-70
2021/04/20 04:00:09;;;;;;;1.13;1.00;;;6.40;99.90;;;;;;4990648;28;20168;-70
2021/04/20 04:02:39;;;;;;;0.88;0.88;;;6.30;99.90;;;;;;4989896;28;20195;-70
2021/04/20 04:05:07;;;;;;;2.15;1.98;;;6.40;99.90;;;;;;4990698;28;20203;-70
2021/04/20 04:07:36;;;;;;;0.73;0.73;;;6.50;99.90;;;;;;4989377;28;20179;-69
2021/04/20 04:10:04;;;;;;;0.55;0.55;;;6.50;99.90;;;;;;4990313;28;20175;-70
2021/04/20 04:12:37;;;;;;;1.50;1.50;;;6.60;99.90;;;;;;4990628;28;20227;-70
2021/04/20 04:15:05;;;;;;;0.52;0.52;;;6.60;99.90;;;;;;4990384;28;20305;-70
2021/04/20 04:17:32;;;;;;;1.00;1.00;;;6.60;99.90;;;;;;4990533;28;20183;-70
2021/04/20 04:20:04;;;;;;;1.23;1.23;;;6.70;99.90;;;;;;4989955;28;20250;-71
2021/04/20 04:22:34;;;;;;;0.40;0.40;;;6.60;99.90;;;;;;4990240;28;20174;-70
2021/04/20 04:25:04;;;;;;;0.55;0.55;;;6.60;99.90;;;;;;4988918;28;20294;-69
2021/04/20 04:27:36;;;;;;;0.98;0.98;;;6.60;99.90;;;;;;4988942;28;20202;-70
2021/04/20 04:30:07;;;;;;;1.00;0.57;;;6.70;99.90;;;;;;4990605;28;20206;-71
2021/04/20 04:32:35;;;;;;;0.10;0.10;;;6.80;99.90;;;;;;4989408;28;20291;-70
2021/04/20 04:35:04;;;;;;;2.08;1.25;;;6.80;99.90;;;;;;4990273;28;20198;-70
2021/04/20 04:37:32;;;;;;;1.52;1.52;;;6.80;99.90;;;;;;4990060;28;20163;-70
2021/04/20 04:39:58;;;;;;;0.98;0.98;;;6.90;99.90;;;;;;4990056;28;20166;-70
2021/04/20 04:42:24;;;;;;;1.20;1.08;;;6.90;99.90;;;;;;4989805;28;20164;-71
2021/04/20 04:44:51;;;;;;;1.17;0.60;;;6.90;99.90;;;;;;4989895;28;20195;-71
2021/04/20 04:47:17;;;;;;;0.35;0.35;;;6.80;99.90;;;;;;4989863;28;20160;-70
2021/04/20 04:49:45;;;;;;;0.57;0.57;;;6.80;99.90;;;;;;4989875;28;20256;-70
2021/04/20 04:52:14;;;;;;;0.30;0.30;;;6.70;99.90;;;;;;4989634;28;20191;-73
2021/04/20 04:54:42;;;;;;;0.50;0.50;;;6.70;99.90;;;;;;4988436;28;20293;-69
2021/04/20 04:57:14;;;;;;;0.68;0.68;;;6.70;99.90;;;;;;4987455;28;20239;-69
2021/04/20 04:59:44;;;;;;;0.82;0.60;;;6.80;99.90;;;;;;4988068;28;20171;-70
2021/04/20 05:02:11;;;;;;;0.45;0.45;;;7.00;99.90;;;;;;4989512;28;20206;-69
2021/04/20 05:04:37;;;;;;;1.45;1.30;;;7.10;99.90;;;;;;4989247;28;20218;-69
2021/04/20 05:07:03;;;;;;;1.60;1.50;;;7.10;99.90;;;;;;4987868;28;20230;-70
2021/04/20 05:09:29;;;;;;;2.70;2.25;;;7.20;99.90;;;;;;4988286;28;20175;-70
2021/04/20 05:11:55;;;;;;;3.15;1.45;;;7.30;99.90;;;;;;4989353;28;20279;-70
2021/04/20 05:14:23;;;;;;;2.13;2.03;;;7.20;99.90;;;;;;4989131;28;20207;-69
2021/04/20 05:16:53;;;;;;;2.00;1.75;;;7.20;99.90;;;;;;4989199;28;20155;-70
2021/04/20 05:19:42;;;;;;;1.05;1.05;;;7.40;99.90;;;;;;4988899;28;20214;-70
2021/04/20 05:22:11;;;;;;;0.73;0.73;;;7.40;99.90;;;;;;4988524;28;20195;-70
2021/04/20 05:24:38;;;;;;;1.65;1.55;;;7.40;99.90;;;;;;4987610;28;20210;-70
2021/04/20 05:27:06;;;;;;;1.00;0.98;;;7.50;99.90;;;;;;4987866;28;20190;-70
2021/04/20 05:29:33;;;;;;;0.43;0.43;;;7.60;99.90;;;;;;4989108;28;20160;-70
2021/04/20 05:31:59;;;;;;;1.42;1.15;;;7.70;99.90;;;;;;4987871;28;20175;-70
2021/04/20 05:34:25;;;;;;;3.10;2.83;;;7.70;99.90;;;;;;4988821;28;20207;-70
2021/04/20 05:36:51;;;;;;;2.08;1.92;;;7.80;99.90;;;;;;4988941;28;20182;-70
2021/04/20 05:39:18;;;;;;;3.20;1.25;;;7.90;99.90;;;;;;4988986;28;20610;-70
2021/04/20 05:41:44;;;;;;;0.93;0.93;;;8.00;99.90;;;;;;4988976;28;20155;-71
2021/04/20 05:44:14;;;;;;;0.75;0.75;;;8.00;99.90;;;;;;4989013;28;20194;-70
2021/04/20 05:46:44;;;;;;;0.75;0.35;;;8.10;99.90;;;;;;4988706;28;20219;-70
2021/04/20 05:49:11;;;;;;;0.63;0.63;;;8.30;99.90;;;;;;4988395;28;20163;-70
2021/04/20 05:51:40;;;;;;;0.60;0.60;;;8.30;99.90;;;;;;4988842;28;20160;-70
2021/04/20 05:54:07;;;;;;;1.98;1.60;;;8.30;99.90;;;;;;4988938;28;20210;-70
2021/04/20 05:56:33;;;;;;;0.63;0.63;;;8.20;99.90;;;;;;4988894;28;20175;-70
2021/04/20 05:59:02;;;;;;;0.35;0.35;;;8.20;99.90;;;;;;4989137;28;20162;-70
2021/04/20 06:01:29;;;;;;;15.45;1.27;;;8.30;99.90;;;;;;4989054;28;20179;-70
2021/04/20 06:03:56;;;;;;;0.70;0.70;;;8.20;99.90;;;;;;4988847;28;20195;-69
2021/04/20 06:06:25;;;;;;;2.10;1.95;;;8.10;99.90;;;;;;4988949;28;20171;-70
2021/04/20 06:08:53;;;;;;;0.85;0.85;;;8.10;99.90;;;;;;4989606;28;20159;-71
2021/04/20 06:11:20;;;;;;;0.90;0.90;;;8.00;99.90;;;;;;4993086;28;20163;-71
2021/04/20 06:13:47;;;;;;;3.10;0.88;;;8.10;99.90;;;;;;4991293;28;20245;-70
2021/04/20 06:16:14;;;;;;;0.93;0.93;;;8.20;99.90;;;;;;4992571;28;20167;-70
2021/04/20 06:18:41;;;;;;;0.50;0.50;;;8.30;99.90;;;;;;4992683;28;20219;-70
2021/04/20 06:21:09;;;;;;;0.80;0.80;;;8.40;99.90;;;;;;4992487;28;20214;-69
2021/04/20 06:23:37;;;;;;;1.02;0.85;;;8.30;99.90;;;;;;4992281;28;20222;-69
2021/04/20 06:26:06;;;;;;;1.08;0.98;;;8.30;99.90;;;;;;4992880;28;20634;-71
2021/04/20 06:28:36;;;;;;;0.55;0.55;;;8.40;99.90;;;;;;4992835;28;20183;-71
2021/04/20 06:31:03;;;;;;;0.70;0.70;;;8.40;99.90;;;;;;4992623;28;20183;-70
2021/04/20 06:33:34;;;;;;;0.98;0.98;;;8.60;99.90;;;;;;4992486;28;20206;-69
2021/04/20 06:36:08;;;;;;;0.40;0.40;;;8.80;99.90;;;;;;4992232;28;20170;-69
2021/04/20 06:38:36;;;;;;;3.47;1.92;;;8.90;99.90;;;;;;4992483;28;20152;-69
2021/04/20 06:41:05;;;;;;;1.05;1.02;;;9.00;99.90;;;;;;4992431;28;20182;-70
2021/04/20 06:43:50;;;;;;;0.95;0.95;;;9.20;99.90;;;;;;4992140;28;20218;-70
2021/04/20 06:46:28;;;;;;;1.05;1.00;;;9.40;99.90;;;;;;4992257;28;20159;-69
2021/04/20 06:49:10;;;;;;;1.02;0.93;;;9.40;99.90;;;;;;4991029;28;20203;-70
2021/04/20 06:51:44;;;;;;;2.50;2.33;;;9.30;99.90;;;;;;4992117;28;20219;-70
2021/04/20 06:54:21;;;;;;;1.02;0.98;;;9.30;99.90;;;;;;4992157;28;20235;-70
2021/04/20 06:56:55;;;;;;;1.85;1.55;;;9.20;99.90;;;;;;4976493;28;20187;-71
2021/04/20 06:59:26;;;;;;;0.60;0.60;;;9.00;99.90;;;;;;4971246;28;20164;-69
2021/04/20 07:02:06;;;;;;;0.93;0.82;;;8.90;99.90;;;;;;4972520;28;20198;-70
2021/04/20 07:04:45;;;;;;;2.42;0.85;;;8.90;99.90;;;;;;4976230;28;20199;-69
2021/04/20 07:07:25;;;;;;;0.90;0.90;;;9.00;99.90;;;;;;4972691;28;20156;-69
2021/04/20 07:09:58;;;;;;;1.77;1.67;;;9.10;99.90;;;;;;4972535;28;20168;-70
2021/04/20 07:12:25;;;;;;;0.82;0.82;;;9.30;99.90;;;;;;4971244;28;20192;-71
2021/04/20 07:14:55;;;;;;;2.55;2.35;;;9.40;99.90;;;;;;4971351;29;20223;-71
2021/04/20 07:17:48;;;;;;;0.55;0.47;;;9.40;99.90;;;;;;4974523;28;20156;-70
2021/04/20 07:20:26;;;;;;;1.02;1.02;;;9.50;99.90;;;;;;4988710;28;20259;-69
2021/04/20 07:23:10;;;;;;;0.50;0.50;;;9.50;99.90;;;;;;4990527;28;20172;-69
2021/04/20 07:25:59;;;;;;;0.55;0.55;;;9.70;99.90;;;;;;4990907;28;20218;-70
2021/04/20 07:28:45;;;;;;;0.10;0.10;;;9.90;99.90;;;;;;4991477;28;20162;-70
2021/04/20 07:31:48;;;;;;;1.00;0.95;;;10.30;99.90;;;;;;4989979;28;20237;-69
2021/04/20 07:34:29;;;;;;;0.98;0.98;;;10.70;99.90;;;;;;4991100;28;20270;-70
2021/04/20 07:37:33;;;;;;;0.30;0.30;;;11.00;99.90;;;;;;4991581;28;20164;-70
2021/04/20 07:40:08;;;;;;;0.80;0.80;;;11.40;99.90;;;;;;4990977;28;20163;-70
2021/04/20 07:42:52;;;;;;;1.65;1.55;;;12.10;99.90;;;;;;4991160;28;20155;-71
2021/04/20 07:45:30;;;;;;;1.70;1.60;;;12.70;99.90;;;;;;4991099;28;20206;-69
2021/04/20 07:48:07;;;;;;;3.50;2.92;;;13.40;99.90;;;;;;4989281;28;20175;-70
2021/04/20 07:50:41;;;;;;;0.88;0.47;;;14.30;99.90;;;;;;4991111;28;20159;-69
2021/04/20 07:53:15;;;;;;;0.85;0.85;;;15.00;99.90;;;;;;4990890;28;20178;-70
2021/04/20 07:56:00;;;;;;;0.73;0.73;;;14.70;99.90;;;;;;4989911;28;20183;-70
2021/04/20 07:58:33;;;;;;;0.82;0.82;;;14.00;99.90;;;;;;4990976;28;20160;-69
2021/04/20 08:01:18;;;;;;;0.40;0.40;;;13.80;99.90;;;;;;4985270;28;20262;-69
2021/04/20 08:04:06;;;;;;;1.23;1.05;;;13.90;99.90;;;;;;4989413;28;20701;-69
2021/04/20 08:06:34;;;;;;;2.13;2.00;;;14.10;99.90;;;;;;4989949;28;20243;-69
2021/04/20 08:09:09;;;;;;;4.53;0.77;;;14.30;99.90;;;;;;4990083;28;20203;-69
2021/04/20 08:11:45;;;;;;;2.92;0.73;;;13.90;99.90;;;;;;4990615;28;20190;-69
2021/04/20 08:14:18;;;;;;;1.00;1.00;;;13.70;99.90;;;;;;4989855;28;20205;-69
2021/04/20 08:16:48;;;;;;;0.63;0.40;;;13.30;99.90;;;;;;4989247;28;20171;-69
2021/04/20 08:19:33;;;;;;;0.10;0.10;;;13.00;99.90;;;;;;4989728;28;20207;-69
2021/04/20 08:22:00;;;;;;;0.25;0.25;;;12.80;99.90;;;;;;4989723;28;20155;-69
2021/04/20 08:24:32;;;;;;;0.25;0.25;;;12.60;99.90;;;;;;4989544;28;20278;-69
2021/04/20 08:27:09;;;;;;;0.68;0.68;;;12.30;99.90;;;;;;4990428;28;20254;-70
2021/04/20 08:29:39;;;;;;;0.20;0.20;;;12.20;99.90;;;;;;4990128;28;20179;-70
2021/04/20 08:32:11;;;;;;;1.23;1.13;;;12.20;99.90;;;;;;4988000;28;20172;-69
2021/04/20 08:35:08;;;;;;;1.27;1.17;;;11.70;99.90;;;;;;4990072;28;20191;-70
2021/04/20 08:37:58;;;;;;;1.33;1.23;;;11.60;99.90;;;;;;4965297;28;20211;-70
2021/04/20 08:40:25;;;;;;;0.10;0.10;;;11.70;99.90;;;;;;4988439;28;20178;-70
2021/04/20 08:43:12;;;;;;;0.10;0.10;;;11.40;99.90;;;;;;4988254;28;20190;-70
2021/04/20 08:45:52;;;;;;;0.17;0.17;;;11.30;99.90;;;;;;4974777;28;20281;-71
2021/04/20 08:48:19;;;;;;;0.90;0.50;;;11.10;99.90;;;;;;4988994;28;20266;-71
2021/04/20 08:50:58;;;;;;;0.22;0.22;;;11.10;99.90;;;;;;4989581;28;20167;-69
2021/04/20 08:54:01;;;;;;;0.30;0.30;;;10.90;99.90;;;;;;4987414;28;20279;-71
2021/04/20 08:56:43;;;;;;;0.10;0.10;;;10.60;99.90;;;;;;4989645;28;20170;-70
2021/04/20 08:59:17;;;;;;;0.50;0.50;;;10.60;99.90;;;;;;4987736;28;20206;-69
2021/04/20 09:02:08;;;;;;;0.10;0.10;;;10.50;99.90;;;;;;4987931;28;20167;-69
2021/04/20 09:04:34;;;;;;;0.10;0.10;;;10.50;99.90;;;;;;4989388;28;20167;-69
2021/04/20 09:07:19;;;;;;;0.20;0.20;;;10.40;99.90;;;;;;4989630;28;20219;-69
2021/04/20 09:09:48;;;;;;;0.10;0.10;;;10.40;99.90;;;;;;4989314;28;20160;-70
2021/04/20 09:12:15;;;;;;;3.53;0.43;;;10.40;99.90;;;;;;4989170;28;20167;-69
2021/04/20 09:14:44;;;;;;;0.20;0.20;;;10.30;99.90;;;;;;4989362;28;20187;-69
2021/04/20 09:17:17;;;;;;;0.10;0.10;;;10.40;99.90;;;;;;4977465;28;20226;-69
2021/04/20 09:19:57;;;;;;;0.80;0.80;;;10.60;99.90;;;;;;4976112;28;20246;-69
2021/04/20 09:23:01;;;;;;;0.10;0.10;;;10.80;99.90;;;;;;4971530;28;20283;-69
2021/04/20 09:25:54;;;;;;;0.10;0.10;;;11.10;99.90;;;;;;4969558;28;20195;-71
2021/04/20 09:28:32;;;;;;;0.30;0.30;;;11.60;99.90;;;;;;4968827;29;20199;-71
2021/04/20 09:31:12;;;;;;;0.28;0.28;;;12.00;99.90;;;;;;4970118;28;20220;-71
2021/04/20 09:33:42;;;;;;;0.40;0.40;;;12.40;99.90;;;;;;4969738;28;20387;-68
2021/04/20 09:36:12;;;;;;;0.22;0.22;;;13.00;99.90;;;;;;4972929;28;20186;-68
2021/04/20 09:38:43;;;;;;;0.45;0.45;;;13.20;99.90;;;;;;4969855;28;20199;-71
2021/04/20 09:41:10;;;;;;;1.80;0.80;;;13.10;99.90;;;;;;4969705;28;20183;-72
2021/04/20 09:43:59;;;;;;;0.20;0.20;;;13.60;99.90;;;;;;4969199;28;20184;-71
2021/04/20 09:46:33;;;;;;;0.10;0.10;;;14.10;99.90;;;;;;4966129;29;20541;-71
2021/04/20 09:49:11;;;;;;;1.60;1.05;;;14.30;99.90;;;;;;4969492;28;20210;-72
2021/04/20 09:52:09;;;;;;;0.13;0.13;;;14.60;99.90;;;;;;4969499;28;20163;-69
2021/04/20 09:54:46;;;;;;;0.10;0.10;;;15.70;99.90;;;;;;4969207;28;20202;-70
2021/04/20 09:57:14;;;;;;;1.10;0.52;;;16.80;99.90;;;;;;4967846;29;20168;-73
2021/04/20 09:59:57;;;;;;;0.32;0.32;;;17.50;99.90;;;;;;4968007;29;20195;-72
2021/04/20 10:02:58;;;;;;;0.08;0.08;;;18.00;99.90;;;;;;4967833;29;20222;-70
2021/04/20 10:05:49;;;;;;;0.40;0.40;;;17.60;99.90;;;;;;4969451;28;20162;-71
2021/04/20 10:08:40;;;;;;;0.20;0.20;;;17.90;99.90;;;;;;4967693;29;20195;-71
2021/04/20 10:11:13;;;;;;;0.60;0.60;;;18.60;99.90;;;;;;4969419;28;20195;-71
2021/04/20 10:14:01;;;;;;;0.10;0.10;;;18.00;99.90;;;;;;4969192;28;20302;-70
2021/04/20 10:16:57;;;;;;;0.17;0.17;;;18.50;99.90;;;;;;4968987;28;20160;-70
2021/04/20 10:19:58;;;;;;;0.00;0.00;;;18.60;99.90;;;;;;4968786;28;20220;-70
2021/04/20 10:22:52;;;;;;;0.10;0.10;;;19.00;99.90;;;;;;4968162;28;20202;-70
2021/04/20 10:25:44;;;;;;;0.20;0.20;;;16.90;99.90;;;;;;4968449;28;20216;-70
2021/04/20 10:28:28;;;;;;;0.25;0.25;;;16.60;99.90;;;;;;4968842;28;20164;-71
2021/04/20 10:30:59;;;;;;;0.47;0.22;;;17.10;99.90;;;;;;4968810;28;20164;-71
2021/04/20 10:33:26;;;;;;;0.03;0.03;;;16.60;99.90;;;;;;4983338;28;20238;-69
2021/04/20 10:35:58;;;;;;;0.35;0.35;;;16.50;99.90;;;;;;4968862;28;20160;-69
2021/04/20 10:38:30;;;;;;;0.52;0.52;;;15.60;99.90;;;;;;4985064;28;20214;-70
2021/04/20 10:40:56;;;;;;;0.10;0.10;;;15.60;99.90;;;;;;4987985;28;20229;-69
2021/04/20 10:43:28;;;;;;;0.25;0.25;;;15.60;99.90;;;;;;4986051;28;20204;-69
2021/04/20 10:45:58;;;;;;;0.10;0.10;;;15.10;99.90;;;;;;4986445;28;20172;-69
2021/04/20 10:48:26;;;;;;;0.40;0.40;;;14.70;99.90;;;;;;4986582;28;20191;-69
2021/04/20 10:50:55;;;;;;;0.10;0.10;;;14.70;99.90;;;;;;4987912;28;20219;-69
2021/04/20 10:53:25;;;;;;;0.10;0.10;;;14.50;99.90;;;;;;4987609;28;20198;-69
2021/04/20 10:56:10;;;;;;;0.10;0.10;;;14.20;99.90;;;;;;4990468;28;20159;-69
2021/04/20 10:58:43;;;;;;;0.10;0.10;;;14.90;99.90;;;;;;4989292;28;20233;-70
2021/04/20 11:01:14;;;;;;;0.10;0.10;;;15.50;99.90;;;;;;4990135;28;20180;-69
2021/04/20 11:03:41;;;;;;;0.10;0.10;;;15.80;99.90;;;;;;4991422;28;20171;-70
2021/04/20 11:06:27;;;;;;;0.10;0.10;;;15.70;99.90;;;;;;4989812;28;20179;-69
2021/04/20 11:08:52;;;;;;;0.00;0.00;;;15.80;99.90;;;;;;4989083;28;20784;-69
2021/04/20 11:11:22;;;;;;;0.00;0.00;;;15.80;99.90;;;;;;4989447;28;20175;-69
2021/04/20 11:13:49;;;;;;;0.13;0.13;;;15.20;99.90;;;;;;4989596;28;20298;-68
2021/04/20 11:16:26;;;;;;;0.10;0.10;;;15.50;99.90;;;;;;4969837;28;20192;-69
2021/04/20 11:18:58;;;;;;;0.00;0.00;;;15.40;99.90;;;;;;4971374;28;20167;-69
2021/04/20 11:21:28;;;;;;;0.10;0.10;;;15.50;99.90;;;;;;4970954;28;20270;-69
2021/04/20 11:24:08;;;;;;;0.00;0.00;;;16.10;99.90;;;;;;4969815;29;20256;-69
2021/04/20 11:26:42;;;;;;;0.10;0.10;;;15.10;99.90;;;;;;4969533;28;20266;-69
2021/04/20 11:29:14;;;;;;;0.65;0.65;;;14.50;99.90;;;;;;4971525;28;20160;-69
2021/04/20 11:31:50;;;;;;;0.43;0.43;;;16.40;99.90;;;;;;4969818;28;20164;-69
2021/04/20 11:34:31;;;;;;;0.10;0.10;;;16.90;99.90;;;;;;4971239;28;20194;-69
2021/04/20 11:37:12;;;;;;;0.10;0.10;;;16.50;99.90;;;;;;4971225;28;20192;-69
2021/04/20 11:39:54;;;;;;;1.00;0.73;;;15.60;99.90;;;;;;4971331;28;20169;-69
2021/04/20 11:42:32;;;;;;;0.32;0.32;;;15.30;99.90;;;;;;4970935;28;20152;-69
2021/04/20 11:45:02;;;;;;;0.22;0.22;;;15.40;99.90;;;;;;4971436;28;20156;-69
2021/04/20 11:47:29;;;;;;;0.10;0.10;;;15.60;99.90;;;;;;4970972;28;20184;-69
2021/04/20 11:50:11;;;;;;;0.35;0.35;;;16.10;99.90;;;;;;4971424;28;20271;-69
2021/04/20 11:52:39;;;;;;;0.25;0.25;;;16.30;99.90;;;;;;4970919;28;20243;-69
2021/04/20 11:55:10;;;;;;;3.15;0.40;;;15.50;99.90;;;;;;4970801;28;20171;-69
2021/04/20 11:57:38;;;;;;;0.10;0.10;;;15.70;99.90;;;;;;4976753;28;20168;-68
2021/04/20 12:00:06;;;;;;;1.17;1.13;;;15.70;99.90;;;;;;4978629;28;20166;-68
2021/04/20 12:02:33;;;;;;;0.20;0.20;;;15.20;99.90;;;;;;4988431;28;20171;-69
2021/04/20 12:05:08;;;;;;;0.35;0.35;;;14.30;99.90;;;;;;4990383;28;20257;-69
2021/04/20 12:07:35;;;;;;;1.00;0.75;;;14.50;99.90;;;;;;4989640;28;20536;-68
2021/04/20 12:10:03;;;;;;;0.25;0.25;;;14.30;99.90;;;;;;4988605;28;20187;-68
2021/04/20 12:12:34;;;;;;;0.20;0.20;;;14.40;99.90;;;;;;4989668;28;20611;-68
2021/04/20 12:15:03;;;;;;;0.20;0.20;;;14.10;99.90;;;;;;4990005;28;20171;-68
2021/04/20 12:17:31;;;;;;;0.40;0.40;;;14.10;99.90;;;;;;4988879;28;20258;-70
2021/04/20 12:20:06;;;;;;;0.40;0.40;;;14.50;99.90;;;;;;4989348;28;20226;-70
2021/04/20 12:22:32;;;;;;;0.63;0.55;;;14.20;99.90;;;;;;4990237;28;20156;-70
2021/04/20 12:25:00;;;;;;;0.90;0.50;;;14.30;99.90;;;;;;4990163;28;20168;-70
2021/04/20 12:27:29;;;;;;;0.20;0.20;;;14.30;99.90;;;;;;4989973;28;20322;-69
2021/04/20 12:29:57;;;;;;;1.48;0.80;;;13.80;99.90;;;;;;4989860;28;20593;-70
2021/04/20 12:32:25;;;;;;;0.45;0.40;;;14.30;99.90;;;;;;4990025;28;20217;-70
2021/04/20 12:34:56;;;;;;;1.95;1.08;;;14.70;99.90;;;;;;4989497;28;20194;-70
2021/04/20 12:37:24;;;;;;;0.20;0.20;;;14.60;99.90;;;;;;4989715;28;20164;-70
2021/04/20 12:39:58;;;;;;;0.55;0.55;;;14.50;99.90;;;;;;4990438;28;20166;-70
2021/04/20 12:42:30;;;;;;;0.20;0.20;;;14.20;99.90;;;;;;4990046;28;20151;-70
2021/04/20 12:44:59;;;;;;;0.20;0.20;;;14.00;99.90;;;;;;4989773;28;20175;-69
2021/04/20 12:47:29;;;;;;;0.43;0.43;;;14.20;99.90;;;;;;4988796;28;20186;-69
2021/04/20 12:49:57;;;;;;;1.08;0.95;;;14.00;99.90;;;;;;4990167;28;20227;-69
2021/04/20 12:52:28;;;;;;;0.20;0.20;;;14.00;99.90;;;;;;4990346;28;20164;-69
2021/04/20 12:55:02;;;;;;;0.50;0.30;;;14.40;99.90;;;;;;4990061;28;20621;-70
2021/04/20 12:57:38;;;;;;;7.68;1.27;;;14.90;99.90;;;;;;4988248;28;20206;-69
2021/04/20 13:00:11;;;;;;;0.85;0.85;;;15.30;99.90;;;;;;4987952;28;20179;-69
2021/04/20 13:02:45;;;;;;;0.30;0.30;;;15.10;99.90;;;;;;4987876;28;20176;-69
2021/04/20 13:05:12;;;;;;;0.22;0.22;;;14.90;99.90;;;;;;4989808;28;20251;-70
2021/04/20 13:07:39;;;;;;;0.20;0.20;;;15.20;99.90;;;;;;4987877;28;20239;-68
2021/04/20 13:10:05;;;;;;;0.28;0.28;;;15.50;99.90;;;;;;4987761;28;20175;-68
2021/04/20 13:12:34;;;;;;;0.20;0.20;;;15.70;99.90;;;;;;4988638;28;20164;-68
2021/04/20 13:15:04;;;;;;;1.75;0.32;;;15.60;99.90;;;;;;4988979;28;20166;-68
2021/04/20 13:17:34;;;;;;;0.30;0.30;;;15.70;99.90;;;;;;4988898;28;20307;-68